createdAt,value
2018-10-09T00:02:46.749Z,11.37
2018-10-09T00:06:52.080Z,11.23
2018-10-09T00:10:55.105Z,10.40
2018-10-09T00:14:57.934Z,11.80
2018-10-09T00:19:00.800Z,10.77
2018-10-09T00:23:03.603Z,12.17
2018-10-09T00:27:06.474Z,11.80
2018-10-09T00:31:09.359Z,12.00
2018-10-09T00:35:12.255Z,12.13
2018-10-09T00:39:15.148Z,12.40
2018-10-09T00:43:17.986Z,11.97
2018-10-09T00:47:20.882Z,12.23
2018-10-09T00:51:24.071Z,10.80
2018-10-09T00:55:26.976Z,11.10
2018-10-09T00:59:29.889Z,11.03
2018-10-09T01:03:32.789Z,10.77
2018-10-09T01:07:35.664Z,11.50
2018-10-09T01:11:38.483Z,11.10
2018-10-09T01:15:41.271Z,11.10
2018-10-09T01:19:44.119Z,10.37
2018-10-09T01:27:59.063Z,9.77
2018-10-09T01:32:01.933Z,11.30
2018-10-09T01:36:06.141Z,11.67
2018-10-09T01:40:09.031Z,10.87
2018-10-09T01:44:11.861Z,11.83
2018-10-09T01:48:14.922Z,10.47
2018-10-09T01:52:18.049Z,11.27
2018-10-09T01:56:21.095Z,11.17
2018-10-09T02:00:23.969Z,10.90
2018-10-09T02:04:26.819Z,11.70
2018-10-09T02:08:29.829Z,11.03
2018-10-09T02:12:32.735Z,12.20
2018-10-09T02:16:35.698Z,11.70
2018-10-09T02:20:38.626Z,11.20
2018-10-09T02:24:41.643Z,11.20
2018-10-09T02:28:44.543Z,10.83
2018-10-09T02:32:47.395Z,11.10
2018-10-09T02:36:50.354Z,11.63
2018-10-09T02:40:53.249Z,11.60
2018-10-09T02:44:56.014Z,11.47
2018-10-09T02:48:58.864Z,12.50
2018-10-09T02:53:01.597Z,12.50
2018-10-09T02:57:04.535Z,12.23
2018-10-09T03:01:07.799Z,12.53
2018-10-09T03:05:10.671Z,12.30
2018-10-09T03:09:13.552Z,13.17
2018-10-09T03:13:16.408Z,11.83
2018-10-09T03:17:19.340Z,11.30
2018-10-09T03:21:22.417Z,10.90
2018-10-09T03:25:25.491Z,11.40
2018-10-09T03:29:28.472Z,11.20
2018-10-09T03:33:31.610Z,11.43
2018-10-09T03:37:34.578Z,11.83
2018-10-09T03:41:37.713Z,11.30
2018-10-09T03:45:40.665Z,11.70
2018-10-09T03:49:43.582Z,10.83
2018-10-09T03:53:46.685Z,11.33
2018-10-09T03:57:49.736Z,10.77
2018-10-09T04:01:52.774Z,12.50
2018-10-09T04:05:55.667Z,11.37
2018-10-09T04:09:58.524Z,11.80
2018-10-09T04:14:01.398Z,12.80
2018-10-09T04:18:04.206Z,11.80
2018-10-09T04:22:07.012Z,11.70
2018-10-09T04:26:10.057Z,11.47
2018-10-09T04:30:12.905Z,10.80
2018-10-09T04:34:16.569Z,11.80
2018-10-09T04:38:19.312Z,12.47
2018-10-09T04:42:22.062Z,12.40
2018-10-09T04:46:24.841Z,11.37
2018-10-09T04:50:27.703Z,10.70
2018-10-09T04:54:30.506Z,12.33
2018-10-09T04:58:33.381Z,12.97
2018-10-09T05:02:36.190Z,13.83
2018-10-09T05:06:38.924Z,12.87
2018-10-09T05:10:41.696Z,12.80
2018-10-09T05:14:44.565Z,12.23
2018-10-09T05:18:47.508Z,12.83
2018-10-09T05:22:51.680Z,12.07
2018-10-09T05:26:54.510Z,12.27
2018-10-09T05:30:57.282Z,11.67
2018-10-09T05:35:00.465Z,12.23
2018-10-09T05:39:04.305Z,12.33
2018-10-09T05:43:07.864Z,12.83
2018-10-09T05:47:10.889Z,12.43
2018-10-09T05:51:13.611Z,11.57
2018-10-09T05:55:16.379Z,12.80
2018-10-09T05:59:19.092Z,13.47
2018-10-09T06:03:21.862Z,13.13
2018-10-09T06:07:24.706Z,13.00
2018-10-09T06:11:27.496Z,13.87
2018-10-09T06:15:30.357Z,15.60
